Time;durP1;ratioP1;P1;durP2;ratioP2;P2;SDS_P1;SDS_P2;PMS_P1;PMS_P2;Temp;Humidity;BMP_temperature;BMP_pressure;BME280_temperature;BME280_humidity;BME280_pressure;Samples;Min_cycle;Max_cycle;Signal;HPM_P1;HPM_P2
2022/10/12 00:00:05;;;;;;;85.75;34.15;;;20.30;68.80;;;;;;4212125;28;20187;-44
2022/10/12 00:02:28;;;;;;;72.78;29.58;;;20.30;68.70;;;;;;4215309;28;20046;-44
2022/10/12 00:04:50;;;;;;;67.95;27.90;;;20.30;68.70;;;;;;4214589;28;20040;-42
2022/10/12 00:07:13;;;;;;;57.33;24.95;;;20.40;68.90;;;;;;4220363;28;20032;-43
2022/10/12 00:09:35;;;;;;;52.85;23.17;;;20.40;68.90;;;;;;4214355;28;20040;-46
2022/10/12 00:11:58;;;;;;;52.05;22.90;;;20.40;68.70;;;;;;4218088;28;20035;-45
2022/10/12 00:14:20;;;;;;;52.42;20.75;;;20.40;68.80;;;;;;4210676;27;20494;-47
2022/10/12 00:16:43;;;;;;;49.35;20.30;;;20.40;68.70;;;;;;4233656;27;20211;-44
2022/10/12 00:19:05;;;;;;;42.42;17.95;;;20.50;68.80;;;;;;4224826;27;20075;-43
2022/10/12 00:21:30;;;;;;;40.83;18.27;;;20.50;68.70;;;;;;4225279;27;20039;-45
2022/10/12 00:23:55;;;;;;;40.88;16.27;;;20.50;68.60;;;;;;4207936;27;20040;-48
2022/10/12 00:26:22;;;;;;;40.65;16.05;;;20.50;68.70;;;;;;4215867;27;21348;-49
2022/10/12 00:28:44;;;;;;;40.10;16.60;;;20.50;68.70;;;;;;4222473;27;20071;-43
2022/10/12 00:31:13;;;;;;;35.70;15.32;;;20.50;68.80;;;;;;4216999;27;20403;-45
2022/10/12 00:33:37;;;;;;;35.20;15.15;;;20.50;68.90;;;;;;4223713;27;20024;-49
2022/10/12 00:36:09;;;;;;;36.22;16.85;;;20.50;68.90;;;;;;4217296;27;20495;-42
2022/10/12 00:38:32;;;;;;;36.20;14.77;;;20.50;69.00;;;;;;4223754;27;20055;-45
2022/10/12 00:40:54;;;;;;;29.08;14.18;;;20.50;68.90;;;;;;4215155;27;20036;-43
2022/10/12 00:43:36;;;;;;;32.75;13.32;;;20.50;68.90;;;;;;4218056;28;20146;-43
2022/10/12 00:46:01;;;;;;;31.98;13.80;;;20.60;68.90;;;;;;4221868;28;20050;-44
2022/10/12 00:48:24;;;;;;;32.92;14.65;;;20.60;69.10;;;;;;4226743;27;20067;-47
2022/10/12 00:50:46;;;;;;;30.73;13.50;;;20.60;69.10;;;;;;4220670;28;20038;-45
2022/10/12 00:53:13;;;;;;;25.38;12.30;;;20.60;69.20;;;;;;4225419;27;20032;-44
2022/10/12 00:55:46;;;;;;;27.48;12.13;;;20.60;69.20;;;;;;4221296;28;20028;-45
2022/10/12 00:58:09;;;;;;;26.77;11.70;;;20.60;69.10;;;;;;4222897;27;20040;-44
2022/10/12 01:00:32;;;;;;;27.80;12.50;;;20.60;69.10;;;;;;4225375;27;20188;-43
2022/10/12 01:02:54;;;;;;;24.95;11.13;;;20.60;69.10;;;;;;4216642;28;20451;-44
2022/10/12 01:05:19;;;;;;;28.65;12.55;;;20.60;69.20;;;;;;4219348;27;20582;-42
2022/10/12 01:07:41;;;;;;;29.13;11.95;;;20.70;69.30;;;;;;4233551;27;20035;-44
2022/10/12 01:10:05;;;;;;;23.10;10.73;;;20.70;69.30;;;;;;4213517;28;20032;-43
2022/10/12 01:12:28;;;;;;;24.98;11.27;;;20.70;69.30;;;;;;4226690;27;20039;-42
2022/10/12 01:14:50;;;;;;;22.40;9.88;;;20.70;69.10;;;;;;4218833;28;20038;-45
2022/10/12 01:17:49;;;;;;;22.65;9.57;;;20.80;69.20;;;;;;4219605;27;20037;-48
2022/10/12 01:20:42;;;;;;;24.10;10.27;;;20.80;69.30;;;;;;4219794;27;20540;-43
2022/10/12 01:23:17;;;;;;;20.38;9.57;;;20.80;69.20;;;;;;4223666;27;20043;-45
2022/10/12 01:25:58;;;;;;;22.52;9.60;;;20.80;69.20;;;;;;4233589;27;20068;-44
2022/10/12 01:28:23;;;;;;;19.00;8.68;;;20.90;69.20;;;;;;4222339;27;20115;-45
2022/10/12 01:30:50;;;;;;;22.65;8.65;;;20.90;69.20;;;;;;4231727;27;20502;-45
2022/10/12 01:33:34;;;;;;;18.10;8.20;;;20.90;69.10;;;;;;4220773;27;20039;-43
2022/10/12 01:36:07;;;;;;;18.67;8.43;;;21.00;69.10;;;;;;4222556;27;20138;-48
2022/10/12 01:38:41;;;;;;;17.52;7.43;;;21.00;69.00;;;;;;4223541;27;20127;-47
2022/10/12 01:41:27;;;;;;;15.68;6.90;;;21.10;69.00;;;;;;4228222;27;20483;-45
2022/10/12 01:43:51;;;;;;;16.30;7.38;;;21.00;68.90;;;;;;4226925;27;20070;-44
2022/10/12 01:46:17;;;;;;;13.88;7.18;;;21.10;69.00;;;;;;4223158;27;20063;-44
2022/10/12 01:48:40;;;;;;;14.10;6.15;;;21.10;69.00;;;;;;4227363;27;20089;-44
2022/10/12 01:51:03;;;;;;;17.05;8.45;;;21.10;68.90;;;;;;4230815;27;20066;-42
2022/10/12 01:53:54;;;;;;;19.88;9.60;;;21.10;68.50;;;;;;4227272;27;20373;-44
2022/10/12 01:56:19;;;;;;;18.23;8.70;;;21.10;69.10;;;;;;4230319;27;20035;-46
2022/10/12 01:59:07;;;;;;;15.43;7.10;;;21.10;69.30;;;;;;4222429;27;20054;-42
2022/10/12 02:01:54;;;;;;;14.52;7.47;;;21.10;69.30;;;;;;4229980;27;20031;-47
2022/10/12 02:04:32;;;;;;;13.70;5.85;;;21.20;69.40;;;;;;4221243;27;20038;-46
2022/10/12 02:07:12;;;;;;;13.25;6.28;;;21.30;69.40;;;;;;4217990;27;20113;-43
2022/10/12 02:09:36;;;;;;;11.90;6.07;;;21.30;69.20;;;;;;4208266;27;20417;-45
2022/10/12 02:12:20;;;;;;;11.48;5.22;;;21.30;69.10;;;;;;4204013;28;20079;-43
2022/10/12 02:14:48;;;;;;;11.70;5.07;;;21.30;69.00;;;;;;4211486;27;20165;-50
2022/10/12 02:17:14;;;;;;;12.98;4.88;;;21.40;68.90;;;;;;4220222;27;20038;-49
2022/10/12 02:19:43;;;;;;;10.50;4.43;;;21.40;68.70;;;;;;4214213;27;20044;-47
2022/10/12 02:22:08;;;;;;;16.25;4.38;;;21.40;68.80;;;;;;4213520;27;20114;-44
2022/10/12 02:24:34;;;;;;;7.13;3.40;;;21.40;68.60;;;;;;4213475;27;20375;-46
2022/10/12 02:26:57;;;;;;;7.32;3.47;;;21.50;68.60;;;;;;4217954;27;20392;-44
2022/10/12 02:29:26;;;;;;;7.30;3.33;;;21.40;68.60;;;;;;4221939;27;20039;-46
2022/10/12 02:32:00;;;;;;;8.77;3.20;;;21.50;68.80;;;;;;4233142;27;20031;-48
2022/10/12 02:35:07;;;;;;;7.22;3.20;;;21.50;68.60;;;;;;4222547;27;20145;-45
2022/10/12 02:37:32;;;;;;;7.20;3.40;;;21.60;68.60;;;;;;4220275;27;20062;-46
2022/10/12 02:40:01;;;;;;;6.35;2.97;;;21.60;68.50;;;;;;4227243;27;20440;-44
2022/10/12 02:42:35;;;;;;;6.85;3.08;;;21.60;68.80;;;;;;4220600;27;20131;-46
2022/10/12 02:45:04;;;;;;;8.27;3.15;;;21.70;68.50;;;;;;4225787;27;20345;-44
2022/10/12 02:47:29;;;;;;;7.40;3.08;;;21.70;68.40;;;;;;4222540;27;20103;-46
2022/10/12 02:49:53;;;;;;;6.43;2.80;;;21.70;68.50;;;;;;4208948;28;20500;-44
2022/10/12 02:52:15;;;;;;;;;;;21.70;68.50;;;;;;4202552;28;20055;-44
2022/10/12 02:54:39;;;;;;;8.02;2.80;;;21.70;68.40;;;;;;4217833;28;19911;-45
2022/10/12 02:57:01;;;;;;;6.07;3.15;;;21.70;68.50;;;;;;4221562;27;20689;-46
2022/10/12 02:59:24;;;;;;;8.93;2.90;;;21.70;68.50;;;;;;4216054;28;20051;-44
2022/10/12 03:01:47;;;;;;;4.93;2.53;;;21.70;69.10;;;;;;4215752;28;20040;-45
2022/10/12 03:04:09;;;;;;;5.35;2.60;;;21.70;68.50;;;;;;4211423;28;20032;-49
2022/10/12 03:06:32;;;;;;;9.32;2.50;;;21.80;68.40;;;;;;4226353;28;20042;-45
2022/10/12 03:08:56;;;;;;;7.07;2.75;;;21.80;68.70;;;;;;4221454;28;20024;-44
2022/10/12 03:11:18;;;;;;;7.60;2.53;;;21.80;68.60;;;;;;4217984;28;20126;-46
2022/10/12 03:13:42;;;;;;;5.80;2.60;;;21.80;68.50;;;;;;4218343;28;20092;-45
2022/10/12 03:16:07;;;;;;;4.45;2.00;;;21.80;68.30;;;;;;4206108;28;20043;-46
2022/10/12 03:18:31;;;;;;;4.90;2.22;;;21.80;68.40;;;;;;4221959;28;20032;-43
2022/10/12 03:20:53;;;;;;;7.75;2.55;;;21.80;68.80;;;;;;4208012;28;20347;-44
2022/10/12 03:23:15;;;;;;;8.30;2.10;;;21.80;68.30;;;;;;4209681;28;20036;-44
2022/10/12 03:25:38;;;;;;;5.25;1.95;;;21.80;68.30;;;;;;4206199;28;20464;-44
2022/10/12 03:28:01;;;;;;;5.70;2.47;;;21.90;68.40;;;;;;4208860;28;20032;-44
2022/10/12 03:30:23;;;;;;;5.32;2.40;;;21.90;68.30;;;;;;4218631;28;20043;-44
2022/10/12 03:32:46;;;;;;;4.65;2.00;;;21.90;68.20;;;;;;4224201;28;20443;-46
2022/10/12 03:35:08;;;;;;;5.22;2.10;;;21.90;68.10;;;;;;4222991;28;20151;-43
2022/10/12 03:37:31;;;;;;;3.65;1.85;;;22.00;68.10;;;;;;4211209;28;20510;-45
2022/10/12 03:39:54;;;;;;;5.80;2.00;;;22.00;68.10;;;;;;4209508;28;20047;-44
2022/10/12 03:42:16;;;;;;;3.63;1.67;;;22.00;68.10;;;;;;4216226;28;20095;-44
2022/10/12 03:44:38;;;;;;;3.95;1.65;;;22.00;67.90;;;;;;4213147;28;20099;-45
2022/10/12 03:47:01;;;;;;;3.80;1.50;;;22.10;67.80;;;;;;4216898;28;20034;-45
2022/10/12 03:49:23;;;;;;;4.32;1.92;;;22.20;67.80;;;;;;4225024;27;20118;-45
2022/10/12 03:51:46;;;;;;;3.33;1.60;;;22.20;67.70;;;;;;4216107;27;20047;-43
2022/10/12 03:54:09;;;;;;;3.90;2.00;;;22.20;67.80;;;;;;4209170;27;20040;-45
2022/10/12 03:56:31;;;;;;;5.28;1.70;;;22.20;67.70;;;;;;4223570;27;20031;-46
2022/10/12 03:58:54;;;;;;;3.08;1.50;;;22.30;67.70;;;;;;4231357;27;20050;-44
2022/10/12 04:01:16;;;;;;;4.10;1.67;;;22.30;67.50;;;;;;4236489;27;20039;-43
2022/10/12 04:03:39;;;;;;;7.15;1.75;;;22.30;67.50;;;;;;4218663;28;20027;-43
2022/10/12 04:06:01;;;;;;;3.53;1.55;;;22.30;67.40;;;;;;4212814;28;20053;-44
2022/10/12 04:08:25;;;;;;;2.90;1.27;;;22.30;67.30;;;;;;4223980;27;20073;-43
2022/10/12 04:10:49;;;;;;;4.07;1.52;;;22.30;67.20;;;;;;4219097;27;20517;-45
2022/10/12 04:13:12;;;;;;;3.45;1.60;;;22.40;67.30;;;;;;4207479;27;20446;-45
2022/10/12 04:15:34;;;;;;;3.15;1.38;;;22.30;67.90;;;;;;4214436;27;20092;-47
2022/10/12 04:17:57;;;;;;;2.97;1.50;;;22.40;67.30;;;;;;4213844;28;20039;-46
2022/10/12 04:20:19;;;;;;;2.88;1.20;;;22.40;67.30;;;;;;4215172;28;20152;-43
2022/10/12 04:22:42;;;;;;;2.92;1.58;;;22.40;67.10;;;;;;4213260;27;20047;-44
2022/10/12 04:25:05;;;;;;;4.75;1.88;;;22.40;67.20;;;;;;4213462;28;20035;-44
2022/10/12 04:27:27;;;;;;;3.60;1.65;;;22.40;67.30;;;;;;4213909;27;20096;-43
2022/10/12 04:29:50;;;;;;;3.03;1.45;;;22.40;67.30;;;;;;4205566;28;20057;-44
2022/10/12 04:32:12;;;;;;;3.35;1.63;;;22.40;67.30;;;;;;4209645;27;20396;-43
2022/10/12 04:34:35;;;;;;;3.42;1.30;;;22.40;67.10;;;;;;4210396;27;20032;-44
2022/10/12 04:36:58;;;;;;;3.40;1.35;;;22.40;67.10;;;;;;4203700;28;20056;-43
2022/10/12 04:39:20;;;;;;;3.38;0.80;;;22.40;67.20;;;;;;4205774;28;20082;-47
2022/10/12 04:41:43;;;;;;;3.60;1.20;;;22.50;67.20;;;;;;4204892;28;20343;-44
2022/10/12 04:44:07;;;;;;;3.25;0.98;;;22.50;67.10;;;;;;4214347;27;20223;-45
2022/10/12 04:46:29;;;;;;;;;;;22.50;67.10;;;;;;4214748;27;20086;-44
2022/10/12 04:48:51;;;;;;;4.63;1.20;;;22.50;67.00;;;;;;4215904;28;19961;-44
2022/10/12 04:51:14;;;;;;;2.60;1.20;;;22.50;67.00;;;;;;4220950;27;20078;-48
2022/10/12 04:53:36;;;;;;;1.95;1.15;;;22.50;67.10;;;;;;4203446;28;20558;-44
2022/10/12 04:56:03;;;;;;;2.55;1.10;;;22.50;67.00;;;;;;4209682;27;20522;-43
2022/10/12 04:58:25;;;;;;;3.70;1.05;;;22.60;66.90;;;;;;4219379;27;20047;-46
2022/10/12 05:00:48;;;;;;;2.63;1.20;;;22.60;66.90;;;;;;4219208;27;20075;-43
2022/10/12 05:03:11;;;;;;;3.95;1.67;;;22.50;67.00;;;;;;4210633;27;20036;-47
2022/10/12 05:05:34;;;;;;;3.38;1.27;;;22.60;67.30;;;;;;4214176;27;20499;-42
2022/10/12 05:07:57;;;;;;;2.92;1.08;;;22.60;67.20;;;;;;4214690;27;20077;-44
2022/10/12 05:10:19;;;;;;;2.55;1.10;;;22.60;67.10;;;;;;4214026;27;20044;-46
2022/10/12 05:12:42;;;;;;;2.55;0.98;;;22.60;67.10;;;;;;4207207;27;20482;-45
2022/10/12 05:15:05;;;;;;;2.70;1.20;;;22.60;66.90;;;;;;4212208;27;20039;-45
2022/10/12 05:17:27;;;;;;;3.75;0.90;;;22.70;66.90;;;;;;4218216;27;20539;-44
2022/10/12 05:19:50;;;;;;;2.53;0.88;;;22.70;66.90;;;;;;4217806;27;20045;-44
2022/10/12 05:22:12;;;;;;;2.67;1.02;;;22.70;66.80;;;;;;4219172;27;20039;-45
2022/10/12 05:24:35;;;;;;;2.92;0.95;;;22.70;66.90;;;;;;4194589;28;20036;-43
2022/10/12 05:26:57;;;;;;;3.20;1.00;;;22.70;67.00;;;;;;4219507;27;20068;-44
2022/10/12 05:29:20;;;;;;;3.20;1.10;;;22.70;67.00;;;;;;4227373;27;20031;-43
2022/10/12 05:31:42;;;;;;;2.80;0.93;;;22.70;66.90;;;;;;4220695;27;20080;-45
2022/10/12 05:34:05;;;;;;;2.80;0.85;;;22.70;66.90;;;;;;4213892;27;20038;-44
2022/10/12 05:36:27;;;;;;;1.42;0.70;;;22.70;66.90;;;;;;4220590;27;20060;-46
2022/10/12 05:38:50;;;;;;;2.40;1.00;;;22.70;66.60;;;;;;4218812;27;20046;-50
2022/10/12 05:41:12;;;;;;;2.58;1.00;;;22.80;66.70;;;;;;4222529;27;20126;-43
2022/10/12 05:43:35;;;;;;;1.48;0.73;;;22.80;66.70;;;;;;4219391;27;20405;-44
2022/10/12 05:45:58;;;;;;;1.40;0.80;;;22.80;66.90;;;;;;4218369;27;20035;-47
2022/10/12 05:48:20;;;;;;;0.93;0.70;;;22.80;66.70;;;;;;4210431;27;20032;-44
2022/10/12 05:50:43;;;;;;;2.13;0.73;;;22.80;66.60;;;;;;4215380;27;20313;-44
2022/10/12 05:53:05;;;;;;;1.35;0.60;;;22.80;66.70;;;;;;4214403;27;20032;-46
2022/10/12 05:55:28;;;;;;;5.40;1.10;;;22.80;66.60;;;;;;4217971;27;20049;-48
2022/10/12 05:57:50;;;;;;;2.55;1.00;;;22.80;66.40;;;;;;4211938;27;20028;-45
2022/10/12 06:00:13;;;;;;;1.90;1.20;;;22.80;66.60;;;;;;4212896;27;20477;-44
2022/10/12 06:02:36;;;;;;;2.53;0.65;;;22.80;66.70;;;;;;4216293;27;20063;-44
2022/10/12 06:04:58;;;;;;;4.57;1.00;;;22.80;66.60;;;;;;4221735;27;20050;-45
2022/10/12 06:07:21;;;;;;;2.05;0.90;;;22.80;66.50;;;;;;4220964;27;20097;-46
2022/10/12 06:09:44;;;;;;;1.83;0.88;;;22.80;66.70;;;;;;4221213;27;20114;-45
2022/10/12 06:12:07;;;;;;;2.47;0.90;;;22.80;66.50;;;;;;4198632;28;20031;-45
2022/10/12 06:14:29;;;;;;;1.85;0.98;;;22.80;66.60;;;;;;4209212;28;20260;-44
2022/10/12 06:16:52;;;;;;;2.35;0.80;;;22.80;66.60;;;;;;4207968;28;20070;-44
2022/10/12 06:19:14;;;;;;;3.95;0.82;;;22.80;66.60;;;;;;4212892;27;20035;-46
2022/10/12 06:21:37;;;;;;;2.33;0.75;;;22.80;66.40;;;;;;4202932;28;20042;-45
2022/10/12 06:24:00;;;;;;;2.83;1.00;;;22.80;66.40;;;;;;4196563;28;20049;-47
2022/10/12 06:26:23;;;;;;;2.55;1.05;;;22.80;66.20;;;;;;4198217;27;20423;-44
2022/10/12 06:28:46;;;;;;;5.53;1.05;;;22.70;66.00;;;;;;4208666;28;20028;-45
2022/10/12 06:31:09;;;;;;;5.40;1.40;;;22.70;65.40;;;;;;4213048;28;20071;-47
2022/10/12 06:33:32;;;;;;;5.70;1.63;;;22.70;65.20;;;;;;4211829;27;20032;-44
2022/10/12 06:35:55;;;;;;;1.95;0.70;;;22.70;65.30;;;;;;4219081;28;20047;-46
2022/10/12 06:38:18;;;;;;;2.80;1.10;;;22.60;65.30;;;;;;4218589;28;20036;-43
2022/10/12 06:40:40;;;;;;;3.92;0.90;;;22.60;65.10;;;;;;4216644;28;20040;-44
2022/10/12 06:43:06;;;;;;;3.28;1.02;;;22.60;65.20;;;;;;4216737;28;20039;-44
2022/10/12 06:45:29;;;;;;;2.22;1.02;;;22.60;65.10;;;;;;4219483;27;20046;-50
2022/10/12 06:47:52;;;;;;;2.95;1.25;;;22.60;65.00;;;;;;4212067;28;20058;-47
2022/10/12 06:50:15;;;;;;;3.05;1.02;;;22.50;65.00;;;;;;4207027;27;20027;-47
2022/10/12 06:52:37;;;;;;;2.83;0.93;;;22.50;65.00;;;;;;4217590;27;20035;-44
2022/10/12 06:55:00;;;;;;;3.25;1.33;;;22.50;64.90;;;;;;4212419;28;20450;-46
2022/10/12 06:57:22;;;;;;;3.00;1.02;;;22.50;65.10;;;;;;4221743;27;20166;-44
2022/10/12 06:59:45;;;;;;;5.53;1.08;;;22.50;65.40;;;;;;4216715;27;20387;-45
2022/10/12 07:02:10;;;;;;;1.80;0.80;;;22.50;65.50;;;;;;4224652;28;20027;-48
2022/10/12 07:04:32;;;;;;;2.47;1.38;;;22.50;65.70;;;;;;4223041;28;20036;-49
2022/10/12 07:06:55;;;;;;;11.05;1.95;;;22.50;65.20;;;;;;4218548;28;20024;-49
2022/10/12 07:09:17;;;;;;;6.72;2.28;;;22.40;65.50;;;;;;4218689;28;20482;-54
2022/10/12 07:11:40;;;;;;;4.05;1.90;;;22.40;65.40;;;;;;4220517;28;20089;-50
2022/10/12 07:14:02;;;;;;;4.57;1.98;;;22.30;65.30;;;;;;4225053;28;20074;-47
2022/10/12 07:16:25;;;;;;;5.05;2.05;;;22.30;65.30;;;;;;4220439;28;20545;-49
2022/10/12 07:18:48;;;;;;;5.80;1.88;;;22.20;65.20;;;;;;4226124;28;20063;-48
2022/10/12 07:21:10;;;;;;;2.38;1.42;;;22.20;65.10;;;;;;4221487;28;21124;-48
2022/10/12 07:23:36;;;;;;;5.20;2.20;;;22.10;65.60;;;;;;4224483;27;20320;-54
2022/10/12 07:25:59;;;;;;;6.28;1.67;;;22.10;64.90;;;;;;4230538;27;20035;-51
2022/10/12 07:28:22;;;;;;;3.75;1.45;;;22.10;64.90;;;;;;4223211;27;20376;-48
2022/10/12 07:30:45;;;;;;;3.88;1.50;;;22.00;64.90;;;;;;4234192;27;20035;-49
2022/10/12 07:33:08;;;;;;;3.60;1.80;;;22.00;65.00;;;;;;4226378;27;20150;-50
2022/10/12 07:35:31;;;;;;;3.03;1.40;;;22.00;65.20;;;;;;4222364;27;20084;-51
2022/10/12 07:37:53;;;;;;;2.78;1.20;;;21.90;65.10;;;;;;4208553;28;20032;-52
2022/10/12 07:40:16;;;;;;;3.42;1.17;;;21.90;65.20;;;;;;4213770;28;20044;-51
2022/10/12 07:42:38;;;;;;;3.17;1.25;;;21.90;65.50;;;;;;4218789;28;20043;-50
2022/10/12 07:45:01;;;;;;;2.30;0.90;;;21.90;65.20;;;;;;4218232;27;20611;-49
2022/10/12 07:47:23;;;;;;;4.93;1.17;;;21.80;65.30;;;;;;4214192;28;20043;-48
2022/10/12 07:49:46;;;;;;;3.00;1.10;;;21.80;65.10;;;;;;4214834;28;20031;-47
2022/10/12 07:52:08;;;;;;;2.78;0.98;;;21.80;65.30;;;;;;4216000;28;20122;-48
2022/10/12 07:54:31;;;;;;;2.50;1.00;;;21.80;65.20;;;;;;4213723;27;20049;-48
2022/10/12 07:56:54;;;;;;;1.90;1.10;;;21.70;65.30;;;;;;4216594;28;20042;-52
2022/10/12 07:59:16;;;;;;;1.90;0.95;;;21.70;65.40;;;;;;4215191;28;20422;-49
2022/10/12 08:01:39;;;;;;;3.53;1.35;;;21.70;65.40;;;;;;4214529;28;20031;-47
2022/10/12 08:04:02;;;;;;;2.38;1.10;;;21.70;65.40;;;;;;4210689;27;20128;-47
2022/10/12 08:06:26;;;;;;;1.85;0.85;;;21.70;65.40;;;;;;4213426;28;20132;-49
2022/10/12 08:08:49;;;;;;;1.80;1.10;;;21.70;65.40;;;;;;4224031;27;20410;-51
2022/10/12 08:11:13;;;;;;;2.93;1.30;;;21.70;65.50;;;;;;4218730;28;20069;-48
2022/10/12 08:13:36;;;;;;;2.70;1.30;;;21.60;65.40;;;;;;4216393;27;20093;-48
2022/10/12 08:15:59;;;;;;;2.53;1.00;;;21.60;65.50;;;;;;4220291;28;20039;-49
2022/10/12 08:18:21;;;;;;;2.15;1.10;;;21.60;65.60;;;;;;4209778;28;20279;-49
2022/10/12 08:20:44;;;;;;;2.28;0.95;;;21.60;65.70;;;;;;4218974;27;20054;-50
2022/10/12 08:23:06;;;;;;;1.90;0.98;;;21.60;65.60;;;;;;4225056;27;20071;-54
2022/10/12 08:25:29;;;;;;;3.72;1.35;;;21.60;65.70;;;;;;4218996;28;20112;-52
2022/10/12 08:27:51;;;;;;;2.45;1.02;;;21.60;65.70;;;;;;4218577;28;20023;-51
2022/10/12 08:30:14;;;;;;;2.55;1.25;;;21.50;65.70;;;;;;4224240;28;20421;-53
2022/10/12 08:32:36;;;;;;;1.98;0.90;;;21.50;65.80;;;;;;4225513;27;20515;-53
2022/10/12 08:35:00;;;;;;;2.72;0.88;;;21.50;65.80;;;;;;4215996;27;20069;-53
2022/10/12 08:37:22;;;;;;;4.23;1.30;;;21.50;65.90;;;;;;4219097;27;20153;-53
2022/10/12 08:39:45;;;;;;;2.42;1.02;;;21.50;65.80;;;;;;4220277;27;20048;-49
2022/10/12 08:42:32;;;;;;;3.10;0.95;;;21.50;65.90;;;;;;4219477;27;20063;-50
2022/10/12 08:45:00;;;;;;;2.95;0.70;;;21.50;65.90;;;;;;4217668;27;20344;-49
2022/10/12 08:47:41;;;;;;;1.50;0.80;;;21.50;66.00;;;;;;4218879;27;20047;-48
2022/10/12 08:50:09;;;;;;;3.35;1.20;;;21.40;66.00;;;;;;4214387;27;20031;-50
2022/10/12 08:52:35;;;;;;;2.60;0.90;;;21.40;66.00;;;;;;4219420;28;20464;-53
2022/10/12 08:55:06;;;;;;;3.03;0.98;;;21.40;66.10;;;;;;4222871;28;20040;-50
2022/10/12 08:57:28;;;;;;;2.70;1.00;;;21.40;66.10;;;;;;4230722;27;20044;-49
2022/10/12 08:59:51;;;;;;;2.08;1.10;;;21.40;66.20;;;;;;4223632;28;20074;-49
2022/10/12 09:02:38;;;;;;;3.08;1.10;;;21.40;66.20;;;;;;4220188;28;20368;-48
2022/10/12 09:05:07;;;;;;;1.98;0.77;;;21.40;66.20;;;;;;4217773;28;20044;-48
2022/10/12 09:07:36;;;;;;;3.00;0.98;;;21.40;66.30;;;;;;4226240;27;20568;-49
2022/10/12 09:10:35;;;;;;;2.13;0.98;;;21.40;66.20;;;;;;4220118;28;20040;-48
2022/10/12 09:13:04;;;;;;;2.70;0.90;;;21.40;66.30;;;;;;4216866;28;20046;-54
2022/10/12 09:15:34;;;;;;;3.00;0.90;;;21.40;66.40;;;;;;4224045;28;20040;-52
2022/10/12 09:17:59;;;;;;;1.77;0.80;;;21.30;66.40;;;;;;4221994;28;20042;-49
2022/10/12 09:20:52;;;;;;;2.53;1.23;;;21.30;66.30;;;;;;4224135;28;20056;-48
2022/10/12 09:23:33;;;;;;;1.30;0.63;;;21.30;66.40;;;;;;4216622;28;20086;-50
2022/10/12 09:26:06;;;;;;;2.30;0.77;;;21.30;66.40;;;;;;4221277;28;20471;-52
2022/10/12 09:28:39;;;;;;;2.25;0.95;;;21.30;66.40;;;;;;4217721;28;20074;-50
2022/10/12 09:31:02;;;;;;;2.40;1.30;;;21.30;66.50;;;;;;4222605;28;20047;-51
2022/10/12 09:33:34;;;;;;;1.70;0.75;;;21.30;66.40;;;;;;4220012;27;20460;-47
2022/10/12 09:35:57;;;;;;;1.08;0.70;;;21.30;66.40;;;;;;4226832;27;20078;-53
2022/10/12 09:38:20;;;;;;;2.90;0.82;;;21.30;66.50;;;;;;4233431;27;20128;-50
2022/10/12 09:40:44;;;;;;;2.90;0.88;;;21.30;66.40;;;;;;4235289;27;20443;-51
2022/10/12 09:43:08;;;;;;;2.80;1.05;;;21.20;66.50;;;;;;4221311;27;20028;-51
2022/10/12 09:45:34;;;;;;;2.97;0.90;;;21.20;66.50;;;;;;4223634;27;20039;-53
2022/10/12 09:48:21;;;;;;;1.42;0.80;;;21.20;66.50;;;;;;4226802;27;21119;-51
2022/10/12 09:50:55;;;;;;;1.35;0.95;;;21.20;66.50;;;;;;4229483;27;20035;-51
2022/10/12 09:53:23;;;;;;;;;;;21.20;66.60;;;;;;4234591;27;20039;-53
2022/10/12 09:55:57;;;;;;;3.75;1.20;;;21.20;66.60;;;;;;4214630;28;19907;-50
2022/10/12 09:58:22;;;;;;;1.98;0.75;;;21.20;66.70;;;;;;4218372;27;20161;-49
2022/10/12 10:00:44;;;;;;;1.77;0.90;;;21.20;66.70;;;;;;4236362;27;20054;-50
2022/10/12 10:03:23;;;;;;;1.40;0.80;;;21.20;66.70;;;;;;4237883;27;20028;-48
2022/10/12 10:05:46;;;;;;;1.42;0.88;;;21.20;67.30;;;;;;4237684;27;20046;-51
2022/10/12 10:08:14;;;;;;;1.38;0.63;;;21.20;66.70;;;;;;4234419;27;20034;-50
2022/10/12 10:10:37;;;;;;;1.83;0.70;;;21.20;66.80;;;;;;4224364;27;20034;-50
2022/10/12 10:13:02;;;;;;;1.55;0.77;;;21.10;66.80;;;;;;4225346;27;20040;-53
2022/10/12 10:15:40;;;;;;;2.40;0.73;;;21.10;66.70;;;;;;4228987;27;20479;-51
2022/10/12 10:18:06;;;;;;;1.40;0.88;;;21.10;66.80;;;;;;4233154;27;20475;-50
2022/10/12 10:20:42;;;;;;;1.80;0.70;;;21.10;66.80;;;;;;4221072;27;20055;-51
2022/10/12 10:23:05;;;;;;;0.85;0.70;;;21.10;66.90;;;;;;4232547;27;20045;-50
2022/10/12 10:25:28;;;;;;;1.30;0.63;;;21.10;67.50;;;;;;4223800;27;20492;-48
2022/10/12 10:28:10;;;;;;;2.85;1.25;;;21.10;67.00;;;;;;4234740;27;20066;-49
2022/10/12 10:30:33;;;;;;;2.63;0.90;;;21.10;67.00;;;;;;4226328;27;20054;-49
2022/10/12 10:33:17;;;;;;;3.47;0.80;;;21.10;66.90;;;;;;4228221;27;20043;-54
2022/10/12 10:35:39;;;;;;;;;;;21.10;67.00;;;;;;4224454;27;20043;-49
2022/10/12 10:38:02;;;;;;;1.60;0.75;;;21.10;67.10;;;;;;4231304;27;19946;-50
2022/10/12 10:40:32;;;;;;;1.70;0.70;;;21.10;67.10;;;;;;4227020;27;20486;-50
2022/10/12 10:42:57;;;;;;;2.80;0.88;;;21.10;67.00;;;;;;4230369;27;20688;-52
2022/10/12 10:45:25;;;;;;;1.55;0.90;;;21.10;67.10;;;;;;4232740;27;20043;-49
2022/10/12 10:47:48;;;;;;;2.33;0.70;;;21.00;67.10;;;;;;4233835;27;20039;-50
2022/10/12 10:50:33;;;;;;;2.70;0.90;;;21.00;67.10;;;;;;4229790;27;20039;-49
2022/10/12 10:53:02;;;;;;;0.75;0.60;;;21.00;67.10;;;;;;4225899;27;21314;-56
2022/10/12 10:55:48;;;;;;;9.00;1.55;;;21.00;67.10;;;;;;4217783;28;20035;-52
2022/10/12 10:58:26;;;;;;;5.93;0.90;;;21.00;67.30;;;;;;4220205;27;20043;-53
2022/10/12 11:00:50;;;;;;;2.60;0.70;;;21.00;67.50;;;;;;4213636;28;20067;-55
2022/10/12 11:03:51;;;;;;;1.48;0.60;;;21.10;67.80;;;;;;4218200;28;20104;-56
2022/10/12 11:06:43;;;;;;;4.10;1.23;;;21.10;67.90;;;;;;4192576;28;20055;-51
2022/10/12 11:09:29;;;;;;;2.20;1.05;;;21.10;67.90;;;;;;4219854;28;20067;-51
2022/10/12 11:12:04;;;;;;;4.18;0.73;;;21.10;67.80;;;;;;4221410;28;20131;-49
2022/10/12 11:14:51;;;;;;;3.10;0.88;;;21.10;67.50;;;;;;4228898;28;20487;-54
2022/10/12 11:17:35;;;;;;;12.57;1.48;;;21.10;67.40;;;;;;4214331;28;20061;-52
2022/10/12 11:20:29;;;;;;;8.25;1.45;;;21.10;67.90;;;;;;4220378;28;20104;-54
2022/10/12 11:23:03;;;;;;;3.13;0.80;;;21.10;68.00;;;;;;4211830;28;20042;-57
2022/10/12 11:25:40;;;;;;;1.85;0.80;;;21.10;68.10;;;;;;4213147;28;20089;-57
2022/10/12 11:28:05;;;;;;;1.90;0.70;;;21.10;68.20;;;;;;4213507;28;20091;-56
2022/10/12 11:30:37;;;;;;;2.10;0.68;;;21.10;68.40;;;;;;4213773;28;20258;-51
2022/10/12 11:33:13;;;;;;;3.13;1.02;;;21.10;68.70;;;;;;4214265;28;20126;-49
2022/10/12 11:35:43;;;;;;;1.40;0.60;;;21.10;69.40;;;;;;4220529;28;20519;-49
2022/10/12 11:38:30;;;;;;;2.05;0.68;;;21.20;69.00;;;;;;4212706;28;20132;-51
2022/10/12 11:41:32;;;;;;;2.08;0.50;;;21.20;68.90;;;;;;4217921;28;20048;-47
2022/10/12 11:44:09;;;;;;;1.05;0.40;;;21.20;69.00;;;;;;4214819;28;20486;-55
2022/10/12 11:46:46;;;;;;;0.98;0.38;;;21.20;69.00;;;;;;4215955;28;20031;-49
2022/10/12 11:49:18;;;;;;;0.50;0.30;;;21.20;69.10;;;;;;4210579;28;20040;-48
2022/10/12 11:51:45;;;;;;;2.20;0.47;;;21.20;69.10;;;;;;4215045;28;20039;-50
2022/10/12 11:54:27;;;;;;;0.75;0.30;;;21.20;69.20;;;;;;4217438;28;20075;-49
2022/10/12 11:56:54;;;;;;;0.77;0.50;;;21.20;69.10;;;;;;4212251;28;20040;-50
2022/10/12 11:59:34;;;;;;;2.83;0.77;;;21.20;69.20;;;;;;4214168;28;20086;-54
2022/10/12 12:02:03;;;;;;;2.05;0.55;;;21.10;69.20;;;;;;4206975;28;20090;-54
2022/10/12 12:04:32;;;;;;;1.52;0.68;;;21.20;69.40;;;;;;4209726;28;20479;-52
2022/10/12 12:06:56;;;;;;;0.55;0.47;;;21.10;69.30;;;;;;4213838;28;20413;-48
2022/10/12 12:09:39;;;;;;;1.35;0.32;;;21.10;69.40;;;;;;4214806;28;20036;-49
2022/10/12 12:12:30;;;;;;;0.93;0.40;;;21.10;69.50;;;;;;4214471;27;20445;-50
2022/10/12 12:14:53;;;;;;;1.55;0.22;;;21.10;69.40;;;;;;4208328;28;20028;-50
2022/10/12 12:17:18;;;;;;;1.10;0.50;;;21.10;69.50;;;;;;4215951;28;20140;-53
2022/10/12 12:19:43;;;;;;;0.43;0.35;;;21.10;69.60;;;;;;4211787;28;20050;-56
2022/10/12 12:22:18;;;;;;;1.88;0.40;;;21.10;69.70;;;;;;4218574;27;20043;-58
2022/10/12 12:24:51;;;;;;;2.72;0.63;;;21.10;69.70;;;;;;4221525;27;20070;-53
2022/10/12 12:27:32;;;;;;;3.38;0.75;;;21.10;69.70;;;;;;4219198;28;20035;-50
2022/10/12 12:29:56;;;;;;;6.40;0.85;;;21.10;70.10;;;;;;4226280;27;20134;-51
2022/10/12 12:32:20;;;;;;;2.45;0.57;;;21.10;70.10;;;;;;4226564;27;20039;-49
2022/10/12 12:34:54;;;;;;;2.90;0.82;;;21.10;70.00;;;;;;4218898;28;20058;-51
2022/10/12 12:37:20;;;;;;;1.05;0.50;;;21.10;69.80;;;;;;4223674;28;20426;-52
2022/10/12 12:39:44;;;;;;;0.88;0.52;;;21.10;69.80;;;;;;4223369;28;20052;-51
2022/10/12 12:42:08;;;;;;;0.50;0.50;;;21.10;69.80;;;;;;4225422;27;20493;-52
2022/10/12 12:44:43;;;;;;;1.15;0.50;;;21.10;69.80;;;;;;4222050;28;20047;-56